Station: Jervois  

  Atmospheric Gas Attenuation - ITU Rec 676-11   ----------------- dB/100km -----------------
Date Time Temp RH % AH g/m3 Dew Point Wind Direction Speed kph Gust kph Barometer mB Rainfall Since 9am 24GHz 47GHz 76GHz 122GHz 134GHz 241GHz
01/09 21:30 17.8 51 7.74 7.5 0 0 1020.2 0 17.6 23.7 34.9 91.4 83.4 286.4
01/09 21:20 17.9 50 7.63 7.3 0 0 1020.3 0 17.3 23.5 34.5 90.2 82.0 281.3
01/09 21:10 18.1 51 7.88 7.8 0 0 1020.3 0 17.9 23.8 35.3 92.4 84.8 291.3
01/09 21:00 17.9 51 7.79 7.6 0 0 1020.2 0 17.7 23.8 35.1 91.8 83.9 288.1
01/09 20:50 17.9 51 7.79 7.6 0 0 1020.3 0 17.7 23.8 35.1 91.8 83.9 288.2
01/09 20:40 17.8 51 7.74 7.5 0 0 1020.3 0 17.6 23.7 34.9 91.4 83.4 286.4
01/09 20:30 18 51 7.83 7.7 0 0 1020.1 0 17.8 23.8 35.2 92.0 84.3 289.5
01/09 20:20 18.3 52 8.13 8.3 0 0 1020.1 0 18.4 24.2 36.1 94.7 87.6 301.2
01/09 20:10 18.7 48 7.68 7.5 0 0 1020 0 17.4 23.4 34.3 89.8 81.7 280.6
01/09 20:00 18.7 48 7.68 7.5 0 0 1019.8 0 17.4 23.4 34.3 89.7 81.7 280.6
01/09 19:50 19 47 7.66 7.4 0 0 1019.8 0 17.4 23.3 34.1 89.2 81.2 278.7
01/09 19:40 19.4 46 7.67 7.5 0 0 1019.8 0 17.4 23.2 34.0 88.9 80.9 277.7
01/09 19:30 19.7 46 7.81 7.8 0 0 1019.6 0 17.6 23.3 34.3 89.9 82.2 282.5
01/09 19:20 20.4 42 7.43 7.1 0 0 1019.6 0 16.8 22.6 32.7 85.5 77.1 264.4
01/09 19:10 21.1 40 7.37 7 0 0 1019.5 0 16.7 22.3 32.2 84.2 75.7 259.7
01/09 19:00 21.7 39 7.44 7.2 0 0 1019.3 0 16.8 22.3 32.2 84.2 75.9 260.6
01/09 18:50 22.2 36 7.07 6.4 0 0 1019.3 0 16.0 21.6 30.8 80.3 71.3 244.4
01/09 18:40 23.6 36 7.66 7.7 4 6 1019.2 0 17.2 22.1 32.2 84.3 76.6 263.3
01/09 18:30 24.3 32 7.08 6.6 4 6 1019 0 15.9 21.2 30.0 78.4 69.5 238.6
01/09 18:20 25.8 29 6.98 6.4 6 7 1019.1 0 15.7 20.7 29.2 76.1 67.2 230.5
01/09 18:10 26.6 26 6.54 5.5 7 9 1019 0 14.7 20.0 27.5 71.7 62.0 212.2
01/09 18:00 27.6 25 6.65 5.8 7 9 1018.9 0 14.9 19.9 27.5 71.7 62.3 213.6
01/09 17:50 28.2 23 6.32 5.1 7 11 1019 0 14.2 19.3 26.3 68.5 58.6 200.3
01/09 17:40 28.7 23 6.5 5.5 7 9 1018.9 0 14.6 19.5 26.7 69.6 60.0 205.5
01/09 17:30 29.1 22 6.35 5.2 7 11 1018.8 0 14.2 19.2 26.1 68.0 58.2 199.2
01/09 17:20 29.2 21 6.1 4.6 9 15 1018.9 0 13.7 18.9 25.3 65.9 55.7 190.3
01/09 17:10 29.5 21 6.2 4.9 7 11 1018.8 0 13.9 18.9 25.5 66.5 56.5 193.1
01/09 17:00 29.6 21 6.23 5 6 9 1018.7 0 14.0 18.9 25.6 66.6 56.7 193.9
01/09 16:50 30.1 21 6.4 5.4 0 4 1018.8 0 14.3 19.1 25.9 67.6 58.0 198.6
01/09 16:40 30 20 6.07 4.6 4 9 1018.8 0 13.6 18.7 25.0 65.1 54.8 187.5
01/09 16:30 30.2 20 6.13 4.8 6 11 1018.7 0 13.8 18.7 25.1 65.4 55.3 189.1
01/09 16:20 29.9 21 6.34 5.2 7 15 1018.6 0 14.2 19.0 25.8 67.3 57.6 197.0
01/09 16:10 30.6 20 6.27 5.1 7 9 1018.6 0 14.0 18.8 25.4 66.2 56.4 193.0
01/09 16:00 30.4 20 6.2 4.9 9 13 1018.7 0 13.9 18.8 25.3 65.8 55.8 191.0
01/09 15:50 30.1 21 6.4 5.4 9 19 1018.8 0 14.3 19.1 25.9 67.6 58.0 198.6
01/09 15:40 30.6 21 6.58 5.8 9 17 1018.8 0 14.7 19.2 26.3 68.6 59.4 203.7
01/09 15:30 30.4 21 6.51 5.6 13 20 1018.7 0 14.5 19.1 26.2 68.2 58.9 201.7
01/09 15:20 30.3 21 6.47 5.6 15 20 1018.9 0 14.4 19.1 26.1 68.0 58.6 200.6
01/09 15:10 30.4 21 6.51 5.6 9 15 1018.9 0 14.5 19.1 26.2 68.3 58.9 201.8
01/09 15:00 30 21 6.37 5.3 7 13 1018.9 0 14.3 19.0 25.9 67.5 57.8 197.8
01/09 14:50 30.3 20 6.17 4.9 9 17 1019.2 0 13.8 18.8 25.2 65.6 55.6 190.3
01/09 14:40 29.9 20 6.03 4.5 9 15 1019.3 0 13.6 18.7 24.9 64.9 54.5 186.4
01/09 14:30 30.6 21 6.58 5.8 11 17 1019.4 0 14.7 19.2 26.4 68.7 59.5 203.8
01/09 14:20 30.1 21 6.4 5.4 13 20 1019.5 0 14.3 19.1 26.0 67.7 58.1 198.8
01/09 14:10 30.1 22 6.71 6.1 7 13 1019.7 0 14.9 19.5 26.9 70.2 61.1 209.6
01/09 14:00 30 21 6.37 5.3 9 15 1019.8 0 14.3 19.1 25.9 67.5 57.8 198.0
01/09 13:50 29.9 20 6.03 4.5 9 15 1020.1 0 13.6 18.7 24.9 64.9 54.6 186.5
01/09 13:40 29.7 21 6.27 5.1 11 20 1020.3 0 14.1 19.0 25.7 67.0 57.1 195.3
01/09 13:30 29.7 22 6.57 5.7 17 26 1020.3 0 14.7 19.4 26.6 69.4 60.1 205.8
01/09 13:20 29.6 21 6.23 5 9 19 1020.6 0 14.0 19.0 25.6 66.8 56.8 194.2
01/09 13:10 29.3 21 6.13 4.7 9 19 1020.7 0 13.8 18.9 25.4 66.2 56.0 191.4
01/09 13:00 29.6 23 6.83 6.3 9 13 1020.9 0 15.2 19.8 27.5 71.7 62.8 215.3
01/09 12:50 29.4 22 6.46 5.5 15 26 1021.1 0 14.5 19.3 26.4 68.8 59.2 202.8
01/09 12:40 29.6 24 7.12 6.9 9 20 1021.2 0 15.8 20.1 28.4 74.1 65.7 225.7
01/09 12:30 28.8 22 6.25 5 9 17 1021.4 0 14.0 19.2 26.0 67.6 57.6 196.9
01/09 12:20 29 21 6.03 4.5 9 15 1021.8 0 13.6 18.9 25.3 65.7 55.3 188.8
01/09 12:10 28.9 22 6.29 5.1 13 26 1022 0 14.1 19.3 26.1 67.9 57.9 198.1
01/09 12:00 28.7 24 6.78 6.1 11 17 1022 0 15.1 19.9 27.6 72.1 63.0 216.0
01/09 11:50 28.3 23 6.36 5.2 13 20 1022.3 0 14.3 19.5 26.5 69.0 59.1 202.1
01/09 11:40 28.8 24 6.82 6.2 13 20 1022.4 0 15.2 20.0 27.8 72.4 63.4 217.3
01/09 11:30 28.7 24 6.78 6.1 17 22 1022.6 0 15.1 19.9 27.7 72.1 63.1 216.2
01/09 11:20 28.5 25 6.99 6.6 17 24 1022.8 0 15.6 20.2 28.4 74.1 65.4 224.3
01/09 11:10 28.5 25 6.99 6.6 17 24 1023 0 15.6 20.2 28.4 74.1 65.4 224.3
01/09 11:00 28 26 7.07 6.7 17 24 1023 0 15.8 20.5 28.8 75.2 66.6 228.6
01/09 10:50 27.8 26 6.99 6.6 19 26 1023.2 0 15.6 20.4 28.6 74.7 66.0 226.2
01/09 10:40 27.5 26 6.88 6.3 19 28 1023.4 0 15.4 20.3 28.4 74.1 65.1 223.1
01/09 10:30 27.4 28 7.37 7.3 17 30 1023.5 0 16.4 21.0 30.0 78.4 70.3 241.5
01/09 10:20 27.1 29 7.51 7.5 17 22 1023.6 0 16.7 21.2 30.6 79.9 72.1 247.6
01/09 10:10 26.8 29 7.38 7.3 17 24 1023.6 0 16.4 21.1 30.3 79.0 70.9 243.6
01/09 10:00 26.2 30 7.39 7.3 17 22 1023.7 0 16.5 21.3 30.5 79.7 71.6 245.8
01/09 09:50 25.5 31 7.34 7.1 15 20 1023.8 0 16.4 21.4 30.6 79.9 71.6 246.0
01/09 09:40 25.3 32 7.49 7.4 15 20 1023.8 0 16.7 21.6 31.2 81.4 73.5 252.3
01/09 09:30 25 33 7.6 7.6 13 20 1023.8 0 17.0 21.9 31.7 82.7 74.9 257.5
01/09 09:20 24 33 7.18 6.7 9 15 1023.8 0 16.1 21.5 30.6 79.9 71.2 244.3
01/09 09:10 23 36 7.4 7.1 4 7 1023.9 0 16.6 22.1 31.7 82.9 74.6 255.9
01/09 09:00 22 38 7.37 7 2 6 1024.5 0 16.6 22.3 32.1 83.7 75.2 258.0
01/09 08:50 20.9 39 7.1 6.4 4 7 1023.9 0 16.1 22.1 31.5 82.3 73.1 250.4
01/09 08:40 19.8 43 7.34 6.9 6 7 1023.8 0 16.6 22.7 32.8 85.7 76.9 263.6
01/09 08:30 19 44 7.17 6.5 6 7 1024.3 0 16.3 22.7 32.5 84.9 75.7 259.3
01/09 08:20 18.4 47 7.39 6.9 2 7 1023.6 0 16.8 23.2 33.5 87.6 78.8 270.3
01/09 08:10 17.3 50 7.37 6.8 0 0 1023.6 0 16.8 23.4 33.9 88.6 79.7 273.1
01/09 08:00 16.5 53 7.44 6.9 0 0 1024.1 0 17.0 23.7 34.5 90.2 81.3 279.0
01/09 07:50 15.5 56 7.4 6.8 0 0 1023.5 0 17.0 23.9 34.8 90.9 81.8 280.6
01/09 07:40 14.6 58 7.26 6.4 6 9 1023.5 0 16.7 23.9 34.6 90.5 81.0 277.6
01/09 07:30 13.7 61 7.22 6.3 6 9 1024.1 0 16.6 24.1 34.9 91.2 81.5 279.1
01/09 07:20 12.9 63 7.1 6 7 11 1023.4 0 16.4 24.1 34.7 90.8 80.7 276.4
01/09 07:10 12.2 66 7.12 6 9 11 1023.3 0 16.5 24.4 35.1 91.8 81.7 279.7
01/09 07:00 11.8 66 6.95 5.7 9 11 1023.6 0 16.2 24.2 34.6 90.5 80.0 273.5
01/09 06:50 11.5 66 6.82 5.4 9 9 1023 0 15.9 24.1 34.2 89.5 78.6 268.6
01/09 06:40 11.6 66 6.86 5.5 7 9 1022.9 0 16.0 24.1 34.4 89.7 79.0 270.0
01/09 06:30 12 63 6.71 5.2 7 9 1023.4 0 15.6 23.8 33.6 87.8 76.7 262.1
01/09 06:20 12.1 63 6.76 5.3 7 9 1022.8 0 15.7 23.8 33.8 88.1 77.2 263.8
01/09 06:10 12.3 62 6.73 5.2 7 9 1022.7 0 15.7 23.7 33.6 87.6 76.6 261.8
01/09 06:00 12.3 62 6.73 5.2 7 11 1023.1 0 15.7 23.7 33.6 87.6 76.6 261.9
01/09 05:50 12.2 63 6.8 5.4 6 9 1022.4 0 15.8 23.8 33.8 88.4 77.6 265.2
01/09 05:40 12.4 62 6.77 5.3 7 11 1022.3 0 15.7 23.7 33.6 87.9 77.0 263.2
01/09 05:30 12.2 63 6.8 5.4 9 11 1022.7 0 15.8 23.8 33.9 88.4 77.6 265.3
01/09 05:20 11.1 68 6.85 5.4 7 11 1022.1 0 16.0 24.2 34.5 90.1 79.3 271.1
01/09 05:10 11.7 65 6.8 5.3 7 9 1022 0 15.8 23.9 34.0 88.9 78.0 266.8
01/09 05:00 12.4 61 6.67 5.1 6 9 1022.5 0 15.5 23.6 33.3 86.9 75.7 258.8

Last Refresh: 01-Sep-2026 21:34:16

Bureau of Meteorology